sensor_id;sensor_type;location;lat;lon;timestamp;pressure;altitude;pressure_sealevel;temperature;humidity
16461;BME280;8341;42.048;24.650;2023-02-05T00:00:44;97131.09;;;1.37;100.00
16461;BME280;8341;42.048;24.650;2023-02-05T00:03:11;97132.41;;;1.28;100.00
16461;BME280;8341;42.048;24.650;2023-02-05T00:05:38;97135.09;;;1.28;100.00
16461;BME280;8341;42.048;24.650;2023-02-05T00:08:04;97136.34;;;1.24;100.00
16461;BME280;8341;42.048;24.650;2023-02-05T00:10:31;97144.41;;;1.24;100.00
16461;BME280;8341;42.048;24.650;2023-02-05T00:12:59;97145.63;;;1.19;100.00
16461;BME280;8341;42.048;24.650;2023-02-05T00:15:26;97145.22;;;1.21;100.00
16461;BME280;8341;42.048;24.650;2023-02-05T00:17:53;97145.34;;;1.14;100.00
16461;BME280;8341;42.048;24.650;2023-02-05T00:20:20;97157.81;;;1.24;100.00
16461;BME280;8341;42.048;24.650;2023-02-05T00:22:46;97163.69;;;1.19;100.00
16461;BME280;8341;42.048;24.650;2023-02-05T00:25:13;97165.19;;;1.20;100.00
16461;BME280;8341;42.048;24.650;2023-02-05T00:27:40;97163.53;;;1.26;100.00
16461;BME280;8341;42.048;24.650;2023-02-05T00:30:09;97166.16;;;1.30;100.00
16461;BME280;8341;42.048;24.650;2023-02-05T00:32:36;97166.16;;;1.30;97.45
16461;BME280;8341;42.048;24.650;2023-02-05T00:35:04;97185.03;;;1.26;97.72
16461;BME280;8341;42.048;24.650;2023-02-05T00:37:30;97189.09;;;1.34;96.98
16461;BME280;8341;42.048;24.650;2023-02-05T00:39:57;97198.41;;;1.30;95.30
16461;BME280;8341;42.048;24.650;2023-02-05T00:42:24;97197.63;;;1.29;94.58
16461;BME280;8341;42.048;24.650;2023-02-05T00:44:51;97210.59;;;1.34;93.78
16461;BME280;8341;42.048;24.650;2023-02-05T00:47:19;97209.91;;;1.30;91.90
16461;BME280;8341;42.048;24.650;2023-02-05T00:49:46;97207.44;;;1.39;93.12
16461;BME280;8341;42.048;24.650;2023-02-05T00:52:13;97214.66;;;1.42;92.65
16461;BME280;8341;42.048;24.650;2023-02-05T00:54:40;97220.53;;;1.37;91.04
16461;BME280;8341;42.048;24.650;2023-02-05T00:57:06;97214.38;;;1.37;91.92
16461;BME280;8341;42.048;24.650;2023-02-05T00:59:33;97213.41;;;1.27;91.79
16461;BME280;8341;42.048;24.650;2023-02-05T01:02:00;97214.38;;;1.17;90.66
16461;BME280;8341;42.048;24.650;2023-02-05T01:04:28;97210.56;;;1.14;93.74
16461;BME280;8341;42.048;24.650;2023-02-05T01:06:55;97207.88;;;1.14;94.66
16461;BME280;8341;42.048;24.650;2023-02-05T01:09:22;97222.31;;;1.01;96.13
16461;BME280;8341;42.048;24.650;2023-02-05T01:11:48;97218.13;;;1.00;96.91
16461;BME280;8341;42.048;24.650;2023-02-05T01:14:15;97221.13;;;1.02;97.88
16461;BME280;8341;42.048;24.650;2023-02-05T01:16:42;97226.16;;;1.00;98.63
16461;BME280;8341;42.048;24.650;2023-02-05T01:19:09;97224.13;;;1.07;96.18
16461;BME280;8341;42.048;24.650;2023-02-05T01:21:37;97230.44;;;0.97;95.70
16461;BME280;8341;42.048;24.650;2023-02-05T01:24:04;97234.69;;;0.95;96.32
16461;BME280;8341;42.048;24.650;2023-02-05T01:26:31;97237.00;;;0.93;96.35
16461;BME280;8341;42.048;24.650;2023-02-05T01:28:57;97236.63;;;0.94;94.87
16461;BME280;8341;42.048;24.650;2023-02-05T01:31:24;97231.38;;;0.87;96.00
16461;BME280;8341;42.048;24.650;2023-02-05T01:33:54;97237.47;;;0.88;95.65
16461;BME280;8341;42.048;24.650;2023-02-05T01:36:20;97256.78;;;0.79;97.13
16461;BME280;8341;42.048;24.650;2023-02-05T01:38:49;97248.31;;;0.81;97.75
16461;BME280;8341;42.048;24.650;2023-02-05T01:41:17;97251.13;;;0.74;98.80
16461;BME280;8341;42.048;24.650;2023-02-05T01:44:05;97249.94;;;0.75;99.36
16461;BME280;8341;42.048;24.650;2023-02-05T01:46:33;97253.00;;;0.77;97.64
16461;BME280;8341;42.048;24.650;2023-02-05T01:49:00;97259.31;;;0.63;100.00
16461;BME280;8341;42.048;24.650;2023-02-05T01:51:28;97263.31;;;0.51;100.00
16461;BME280;8341;42.048;24.650;2023-02-05T01:53:58;97266.69;;;0.59;100.00
16461;BME280;8341;42.048;24.650;2023-02-05T01:56:28;97241.13;;;0.51;100.00
16461;BME280;8341;42.048;24.650;2023-02-05T01:58:59;97266.56;;;0.66;100.00
16461;BME280;8341;42.048;24.650;2023-02-05T02:01:28;97263.81;;;0.70;100.00
16461;BME280;8341;42.048;24.650;2023-02-05T02:03:58;97273.03;;;0.69;100.00
16461;BME280;8341;42.048;24.650;2023-02-05T02:06:29;97277.81;;;0.57;100.00
16461;BME280;8341;42.048;24.650;2023-02-05T02:08:57;97273.97;;;0.58;100.00
16461;BME280;8341;42.048;24.650;2023-02-05T02:11:25;97283.91;;;0.61;100.00
16461;BME280;8341;42.048;24.650;2023-02-05T02:13:55;97281.66;;;0.56;100.00
16461;BME280;8341;42.048;24.650;2023-02-05T02:16:24;97277.84;;;0.54;100.00
16461;BME280;8341;42.048;24.650;2023-02-05T02:18:53;97290.09;;;0.55;100.00
16461;BME280;8341;42.048;24.650;2023-02-05T02:21:45;97290.25;;;0.44;100.00
16461;BME280;8341;42.048;24.650;2023-02-05T02:24:42;97289.47;;;0.44;100.00
16461;BME280;8341;42.048;24.650;2023-02-05T02:27:33;97294.94;;;0.37;100.00
16461;BME280;8341;42.048;24.650;2023-02-05T02:30:04;97288.53;;;0.31;100.00
16461;BME280;8341;42.048;24.650;2023-02-05T02:32:37;97293.81;;;0.34;100.00
16461;BME280;8341;42.048;24.650;2023-02-05T02:35:09;97291.88;;;0.38;100.00
16461;BME280;8341;42.048;24.650;2023-02-05T02:37:44;97294.19;;;0.36;100.00
16461;BME280;8341;42.048;24.650;2023-02-05T02:40:18;97287.31;;;0.35;100.00
16461;BME280;8341;42.048;24.650;2023-02-05T02:42:51;97294.38;;;0.22;100.00
16461;BME280;8341;42.048;24.650;2023-02-05T02:45:21;97297.06;;;0.22;100.00
16461;BME280;8341;42.048;24.650;2023-02-05T02:47:56;97300.44;;;0.26;100.00
16461;BME280;8341;42.048;24.650;2023-02-05T02:50:27;97299.72;;;0.22;100.00
16461;BME280;8341;42.048;24.650;2023-02-05T02:53:00;97305.91;;;0.19;100.00
16461;BME280;8341;42.048;24.650;2023-02-05T02:55:28;97302.19;;;0.10;100.00
16461;BME280;8341;42.048;24.650;2023-02-05T02:58:00;97302.22;;;0.06;100.00
16461;BME280;8341;42.048;24.650;2023-02-05T03:00:27;97307.13;;;0.11;100.00
16461;BME280;8341;42.048;24.650;2023-02-05T03:03:04;97308.75;;;0.05;100.00
16461;BME280;8341;42.048;24.650;2023-02-05T03:05:33;97307.66;;;-0.01;100.00
16461;BME280;8341;42.048;24.650;2023-02-05T03:08:05;97305.13;;;-0.15;100.00
16461;BME280;8341;42.048;24.650;2023-02-05T03:10:36;97315.38;;;-0.07;100.00
16461;BME280;8341;42.048;24.650;2023-02-05T03:13:08;97304.25;;;-0.05;100.00
16461;BME280;8341;42.048;24.650;2023-02-05T03:15:36;97316.50;;;-0.04;100.00
16461;BME280;8341;42.048;24.650;2023-02-05T03:18:03;97310.78;;;-0.06;100.00
16461;BME280;8341;42.048;24.650;2023-02-05T03:20:32;97308.09;;;-0.06;100.00
16461;BME280;8341;42.048;24.650;2023-02-05T03:23:02;97304.31;;;-0.09;100.00
16461;BME280;8341;42.048;24.650;2023-02-05T03:25:29;97305.13;;;-0.15;100.00
16461;BME280;8341;42.048;24.650;2023-02-05T03:27:56;97302.09;;;-0.17;100.00
16461;BME280;8341;42.048;24.650;2023-02-05T03:30:31;97313.13;;;-0.08;100.00
16461;BME280;8341;42.048;24.650;2023-02-05T03:33:07;97320.81;;;-0.14;100.00
16461;BME280;8341;42.048;24.650;2023-02-05T03:35:44;97325.06;;;-0.16;100.00
16461;BME280;8341;42.048;24.650;2023-02-05T03:38:27;97315.41;;;-0.10;100.00
16461;BME280;8341;42.048;24.650;2023-02-05T03:41:01;97323.44;;;-0.10;100.00
16461;BME280;8341;42.048;24.650;2023-02-05T03:43:40;97323.09;;;-0.12;100.00
16461;BME280;8341;42.048;24.650;2023-02-05T03:46:16;97327.69;;;-0.13;100.00
16461;BME280;8341;42.048;24.650;2023-02-05T03:48:57;97330.34;;;-0.09;100.00
16461;BME280;8341;42.048;24.650;2023-02-05T03:51:33;97323.06;;;-0.09;100.00
16461;BME280;8341;42.048;24.650;2023-02-05T03:54:09;97326.19;;;-0.14;100.00
16461;BME280;8341;42.048;24.650;2023-02-05T03:56:46;97325.44;;;-0.18;100.00
16461;BME280;8341;42.048;24.650;2023-02-05T03:59:16;97327.75;;;-0.16;100.00
16461;BME280;8341;42.048;24.650;2023-02-05T04:01:46;97333.53;;;-0.21;100.00
16461;BME280;8341;42.048;24.650;2023-02-05T04:04:13;97340.34;;;-0.13;100.00
16461;BME280;8341;42.048;24.650;2023-02-05T04:06:40;97338.81;;;-0.14;100.00
16461;BME280;8341;42.048;24.650;2023-02-05T04:09:09;97350.69;;;-0.15;100.00
16461;BME280;8341;42.048;24.650;2023-02-05T04:11:36;97349.81;;;-0.05;100.00
16461;BME280;8341;42.048;24.650;2023-02-05T04:14:03;97348.78;;;-0.15;100.00
16461;BME280;8341;42.048;24.650;2023-02-05T04:16:29;97353.34;;;-0.12;100.00
16461;BME280;8341;42.048;24.650;2023-02-05T04:18:58;97356.00;;;-0.08;100.00
16461;BME280;8341;42.048;24.650;2023-02-05T04:21:24;97359.81;;;-0.09;100.00
16461;BME280;8341;42.048;24.650;2023-02-05T04:23:52;97355.59;;;-0.07;100.00
16461;BME280;8341;42.048;24.650;2023-02-05T04:26:18;97365.19;;;-0.09;100.00
16461;BME280;8341;42.048;24.650;2023-02-05T04:28:45;97367.47;;;-0.08;99.12
16461;BME280;8341;42.048;24.650;2023-02-05T04:31:12;97369.78;;;-0.10;98.17
16461;BME280;8341;42.048;24.650;2023-02-05T04:33:39;97372.44;;;-0.06;97.85
16461;BME280;8341;42.048;24.650;2023-02-05T04:36:08;97365.19;;;-0.09;97.62
16461;BME280;8341;42.048;24.650;2023-02-05T04:38:35;97375.88;;;-0.06;97.76
16461;BME280;8341;42.048;24.650;2023-02-05T04:41:02;97369.75;;;-0.06;97.27
16461;BME280;8341;42.048;24.650;2023-02-05T04:43:29;97375.56;;;-0.11;97.44
16461;BME280;8341;42.048;24.650;2023-02-05T04:45:56;97373.66;;;-0.14;97.59
16461;BME280;8341;42.048;24.650;2023-02-05T04:48:22;97385.16;;;-0.17;97.04
16461;BME280;8341;42.048;24.650;2023-02-05T04:50:49;97376.31;;;-0.11;98.61
16461;BME280;8341;42.048;24.650;2023-02-05T04:53:17;97374.88;;;-0.19;98.90
16461;BME280;8341;42.048;24.650;2023-02-05T04:55:44;97363.81;;;-0.24;98.37
16461;BME280;8341;42.048;24.650;2023-02-05T04:58:11;97366.06;;;-0.23;98.30
16461;BME280;8341;42.048;24.650;2023-02-05T05:00:37;97371.44;;;-0.23;99.08
16461;BME280;8341;42.048;24.650;2023-02-05T05:03:04;97376.41;;;-0.21;99.21
16461;BME280;8341;42.048;24.650;2023-02-05T05:05:33;97367.59;;;-0.22;98.86
16461;BME280;8341;42.048;24.650;2023-02-05T05:08:00;97377.47;;;-0.15;98.25
16461;BME280;8341;42.048;24.650;2023-02-05T05:10:28;97378.75;;;-0.23;96.49
16461;BME280;8341;42.048;24.650;2023-02-05T05:12:55;97380.91;;;-0.11;96.59
16461;BME280;8341;42.048;24.650;2023-02-05T05:15:22;97381.28;;;-0.13;97.35
16461;BME280;8341;42.048;24.650;2023-02-05T05:17:49;97393.19;;;-0.14;95.49
16461;BME280;8341;42.048;24.650;2023-02-05T05:20:16;97399.94;;;-0.02;95.21
16461;BME280;8341;42.048;24.650;2023-02-05T05:22:43;97392.84;;;-0.16;94.62
16461;BME280;8341;42.048;24.650;2023-02-05T05:25:09;97396.19;;;-0.08;94.49
16461;BME280;8341;42.048;24.650;2023-02-05T05:27:38;97407.13;;;0.08;93.41
16461;BME280;8341;42.048;24.650;2023-02-05T05:30:05;97414.09;;;0.02;93.47
16461;BME280;8341;42.048;24.650;2023-02-05T05:32:32;97411.78;;;0.04;92.81
16461;BME280;8341;42.048;24.650;2023-02-05T05:34:59;97406.34;;;0.11;91.98
16461;BME280;8341;42.048;24.650;2023-02-05T05:37:25;97407.94;;;0.05;93.01
16461;BME280;8341;42.048;24.650;2023-02-05T05:39:52;97420.09;;;0.13;93.07
16461;BME280;8341;42.048;24.650;2023-02-05T05:42:52;97414.69;;;0.20;91.58
16461;BME280;8341;42.048;24.650;2023-02-05T05:45:36;97419.63;;;0.22;91.27
16461;BME280;8341;42.048;24.650;2023-02-05T05:48:03;97412.03;;;0.17;91.07
16461;BME280;8341;42.048;24.650;2023-02-05T05:50:30;97425.31;;;0.27;91.03
16461;BME280;8341;42.048;24.650;2023-02-05T05:52:57;97427.44;;;0.09;91.66
16461;BME280;8341;42.048;24.650;2023-02-05T05:55:24;97437.00;;;0.10;90.46
16461;BME280;8341;42.048;24.650;2023-02-05T05:57:52;97439.97;;;0.19;89.08
16461;BME280;8341;42.048;24.650;2023-02-05T06:00:19;97430.88;;;0.10;89.06
16461;BME280;8341;42.048;24.650;2023-02-05T06:02:46;97439.28;;;0.12;88.50
16461;BME280;8341;42.048;24.650;2023-02-05T06:05:13;97443.41;;;0.20;88.08
16461;BME280;8341;42.048;24.650;2023-02-05T06:07:40;97452.59;;;0.22;87.65
16461;BME280;8341;42.048;24.650;2023-02-05T06:10:07;97460.91;;;0.31;86.73
16461;BME280;8341;42.048;24.650;2023-02-05T06:12:35;97459.06;;;0.25;85.65
16461;BME280;8341;42.048;24.650;2023-02-05T06:15:04;97460.53;;;0.33;85.25
16461;BME280;8341;42.048;24.650;2023-02-05T06:17:30;97470.31;;;0.46;85.15
16461;BME280;8341;42.048;24.650;2023-02-05T06:19:57;97474.53;;;0.47;84.97
16461;BME280;8341;42.048;24.650;2023-02-05T06:22:24;97485.19;;;0.54;84.15
16461;BME280;8341;42.048;24.650;2023-02-05T06:24:51;97494.44;;;0.50;81.24
16461;BME280;8341;42.048;24.650;2023-02-05T06:27:18;97494.00;;;0.55;82.08
16461;BME280;8341;42.048;24.650;2023-02-05T06:29:45;97500.50;;;0.57;84.30
16461;BME280;8341;42.048;24.650;2023-02-05T06:32:13;97496.22;;;0.63;84.68
16461;BME280;8341;42.048;24.650;2023-02-05T06:34:39;97497.69;;;0.72;85.49
16461;BME280;8341;42.048;24.650;2023-02-05T06:37:06;97497.63;;;0.75;85.37
16461;BME280;8341;42.048;24.650;2023-02-05T06:39:34;97493.81;;;0.73;84.07
16461;BME280;8341;42.048;24.650;2023-02-05T06:42:01;97497.25;;;0.73;86.09
16461;BME280;8341;42.048;24.650;2023-02-05T06:44:28;97500.63;;;0.81;86.77
16461;BME280;8341;42.048;24.650;2023-02-05T06:46:55;97504.09;;;0.78;88.07
16461;BME280;8341;42.048;24.650;2023-02-05T06:49:23;97501.47;;;0.74;85.10
16461;BME280;8341;42.048;24.650;2023-02-05T06:51:50;97503.78;;;0.72;84.83
16461;BME280;8341;42.048;24.650;2023-02-05T06:54:17;97498.84;;;0.67;84.00
16461;BME280;8341;42.048;24.650;2023-02-05T06:56:44;97512.34;;;0.60;84.21
16461;BME280;8341;42.048;24.650;2023-02-05T06:59:10;97513.13;;;0.60;81.95
16461;BME280;8341;42.048;24.650;2023-02-05T07:01:37;97517.63;;;0.71;82.35
16461;BME280;8341;42.048;24.650;2023-02-05T07:04:04;97518.28;;;0.82;81.97
16461;BME280;8341;42.048;24.650;2023-02-05T07:06:32;97526.75;;;0.77;81.33
16461;BME280;8341;42.048;24.650;2023-02-05T07:08:59;97523.50;;;0.58;81.80
16461;BME280;8341;42.048;24.650;2023-02-05T07:11:26;97537.09;;;0.75;81.63
16461;BME280;8341;42.048;24.650;2023-02-05T07:13:53;97529.03;;;0.78;81.16
16461;BME280;8341;42.048;24.650;2023-02-05T07:16:19;97536.25;;;0.85;80.58
16461;BME280;8341;42.048;24.650;2023-02-05T07:18:46;97547.59;;;0.99;80.01
16461;BME280;8341;42.048;24.650;2023-02-05T07:21:14;97557.94;;;1.01;79.76
16461;BME280;8341;42.048;24.650;2023-02-05T07:23:43;97554.84;;;1.02;79.67
16461;BME280;8341;42.048;24.650;2023-02-05T07:26:11;97562.59;;;0.97;79.45
16461;BME280;8341;42.048;24.650;2023-02-05T07:28:39;97559.41;;;1.05;78.84
16461;BME280;8341;42.048;24.650;2023-02-05T07:31:08;97578.81;;;0.86;78.97
16461;BME280;8341;42.048;24.650;2023-02-05T07:33:35;97578.28;;;0.98;77.60
16461;BME280;8341;42.048;24.650;2023-02-05T07:36:03;97576.00;;;0.97;78.67
16461;BME280;8341;42.048;24.650;2023-02-05T07:38:30;97582.69;;;0.82;80.66
16461;BME280;8341;42.048;24.650;2023-02-05T07:40:58;97563.59;;;0.73;81.31
16461;BME280;8341;42.048;24.650;2023-02-05T07:43:24;97581.91;;;0.85;82.13
16461;BME280;8341;42.048;24.650;2023-02-05T07:45:55;97588.19;;;1.05;82.25
16461;BME280;8341;42.048;24.650;2023-02-05T07:48:22;97590.00;;;1.15;82.74
16461;BME280;8341;42.048;24.650;2023-02-05T07:50:48;97589.91;;;1.22;82.63
16461;BME280;8341;42.048;24.650;2023-02-05T07:53:15;97599.00;;;1.32;82.76
16461;BME280;8341;42.048;24.650;2023-02-05T07:55:42;97601.31;;;1.33;83.40
16461;BME280;8341;42.048;24.650;2023-02-05T07:58:10;97608.59;;;1.33;83.76
16461;BME280;8341;42.048;24.650;2023-02-05T08:00:37;97609.75;;;1.32;83.93
16461;BME280;8341;42.048;24.650;2023-02-05T08:03:04;97599.13;;;1.21;84.33
16461;BME280;8341;42.048;24.650;2023-02-05T08:05:31;97612.41;;;1.35;84.79
16461;BME280;8341;42.048;24.650;2023-02-05T08:07:58;97606.25;;;1.38;85.17
16461;BME280;8341;42.048;24.650;2023-02-05T08:10:25;97611.56;;;1.42;84.90
16461;BME280;8341;42.048;24.650;2023-02-05T08:12:51;97615.78;;;1.43;84.33
16461;BME280;8341;42.048;24.650;2023-02-05T08:15:19;97614.19;;;1.49;84.20
16461;BME280;8341;42.048;24.650;2023-02-05T08:17:46;97619.84;;;1.54;84.24
16461;BME280;8341;42.048;24.650;2023-02-05T08:20:14;97622.59;;;1.51;84.41
16461;BME280;8341;42.048;24.650;2023-02-05T08:22:41;97627.09;;;1.57;84.48
16461;BME280;8341;42.048;24.650;2023-02-05T08:25:11;97628.16;;;1.67;83.64
16461;BME280;8341;42.048;24.650;2023-02-05T08:27:39;97631.06;;;1.79;83.27
16461;BME280;8341;42.048;24.650;2023-02-05T08:30:09;97626.13;;;1.74;83.51
16461;BME280;8341;42.048;24.650;2023-02-05T08:32:38;97635.75;;;2.02;83.27
16461;BME280;8341;42.048;24.650;2023-02-05T08:35:05;97637.47;;;2.16;81.91
16461;BME280;8341;42.048;24.650;2023-02-05T08:37:32;97630.81;;;2.24;80.62
16461;BME280;8341;42.048;24.650;2023-02-05T08:39:59;97632.56;;;2.34;79.71
16461;BME280;8341;42.048;24.650;2023-02-05T08:42:26;97639.78;;;2.40;78.05
16461;BME280;8341;42.048;24.650;2023-02-05T08:44:52;97645.09;;;2.21;78.77
16461;BME280;8341;42.048;24.650;2023-02-05T08:47:23;97641.59;;;2.47;77.53
16461;BME280;8341;42.048;24.650;2023-02-05T08:49:52;97649.47;;;2.61;76.15
16461;BME280;8341;42.048;24.650;2023-02-05T08:52:19;97652.03;;;2.68;76.80
16461;BME280;8341;42.048;24.650;2023-02-05T08:54:46;97647.34;;;2.95;75.07
16461;BME280;8341;42.048;24.650;2023-02-05T08:57:13;97657.69;;;3.20;73.78
16461;BME280;8341;42.048;24.650;2023-02-05T08:59:41;97654.88;;;3.27;72.79
16461;BME280;8341;42.048;24.650;2023-02-05T09:02:09;97653.38;;;3.46;72.01
16461;BME280;8341;42.048;24.650;2023-02-05T09:04:39;97651.75;;;3.68;71.23
16461;BME280;8341;42.048;24.650;2023-02-05T09:07:07;97659.59;;;3.82;69.16
16461;BME280;8341;42.048;24.650;2023-02-05T09:09:34;97667.03;;;3.94;69.12
16461;BME280;8341;42.048;24.650;2023-02-05T09:12:01;97660.47;;;3.95;67.95
16461;BME280;8341;42.048;24.650;2023-02-05T09:14:28;97660.84;;;4.13;68.04
16461;BME280;8341;42.048;24.650;2023-02-05T09:17:01;97677.88;;;4.10;66.90
16461;BME280;8341;42.048;24.650;2023-02-05T09:19:27;97678.47;;;4.18;66.84
16461;BME280;8341;42.048;24.650;2023-02-05T09:21:55;97679.88;;;4.06;65.99
16461;BME280;8341;42.048;24.650;2023-02-05T09:24:23;97680.75;;;4.19;66.64
16461;BME280;8341;42.048;24.650;2023-02-05T09:26:50;97684.59;;;4.38;65.62
16461;BME280;8341;42.048;24.650;2023-02-05T09:29:17;97685.78;;;4.53;65.03
16461;BME280;8341;42.048;24.650;2023-02-05T09:31:43;97677.00;;;4.65;63.95
16461;BME280;8341;42.048;24.650;2023-02-05T09:34:12;97667.16;;;4.75;63.35
16461;BME280;8341;42.048;24.650;2023-02-05T09:36:40;97675.06;;;4.82;62.85
16461;BME280;8341;42.048;24.650;2023-02-05T09:39:07;97670.75;;;4.68;62.75
16461;BME280;8341;42.048;24.650;2023-02-05T09:41:41;97675.25;;;4.59;62.55
16461;BME280;8341;42.048;24.650;2023-02-05T09:44:17;97678.53;;;4.66;62.34
16461;BME280;8341;42.048;24.650;2023-02-05T09:46:54;97678.34;;;4.73;58.39
16461;BME280;8341;42.048;24.650;2023-02-05T09:49:26;97672.03;;;4.64;61.54
16461;BME280;8341;42.048;24.650;2023-02-05T09:51:58;97674.56;;;4.71;61.08
16461;BME280;8341;42.048;24.650;2023-02-05T09:54:29;97667.16;;;4.75;60.12
16461;BME280;8341;42.048;24.650;2023-02-05T09:57:02;97669.09;;;4.74;60.02
16461;BME280;8341;42.048;24.650;2023-02-05T09:59:30;97668.91;;;4.81;60.06
16461;BME280;8341;42.048;24.650;2023-02-05T10:02:00;97665.63;;;4.74;59.69
16461;BME280;8341;42.048;24.650;2023-02-05T10:04:27;97665.44;;;4.81;60.22
16461;BME280;8341;42.048;24.650;2023-02-05T10:07:28;97670.50;;;4.47;60.67
16461;BME280;8341;42.048;24.650;2023-02-05T10:10:10;97663.84;;;4.67;61.13
16461;BME280;8341;42.048;24.650;2023-02-05T10:12:57;97674.53;;;3.67;57.96
16461;BME280;8341;42.048;24.650;2023-02-05T10:15:35;97670.59;;;4.07;60.96
16461;BME280;8341;42.048;24.650;2023-02-05T10:18:13;97665.94;;;4.43;60.27
16461;BME280;8341;42.048;24.650;2023-02-05T10:20:52;97670.16;;;4.61;60.91
16461;BME280;8341;42.048;24.650;2023-02-05T10:23:35;97680.94;;;4.28;57.64
16461;BME280;8341;42.048;24.650;2023-02-05T10:26:09;97678.38;;;4.05;57.61
16461;BME280;8341;42.048;24.650;2023-02-05T10:29:05;97689.38;;;4.30;56.51
16461;BME280;8341;42.048;24.650;2023-02-05T10:31:51;97683.22;;;3.94;58.31
16461;BME280;8341;42.048;24.650;2023-02-05T10:34:32;97693.56;;;3.96;61.90
16461;BME280;8341;42.048;24.650;2023-02-05T10:37:05;97691.09;;;3.26;66.70
16461;BME280;8341;42.048;24.650;2023-02-05T10:39:35;97694.91;;;2.82;68.86
16461;BME280;8341;42.048;24.650;2023-02-05T10:42:16;97693.19;;;2.69;69.75
16461;BME280;8341;42.048;24.650;2023-02-05T10:44:49;97698.47;;;2.76;69.40
16461;BME280;8341;42.048;24.650;2023-02-05T10:47:23;97688.59;;;2.69;69.05
16461;BME280;8341;42.048;24.650;2023-02-05T10:49:56;97693.25;;;2.65;69.52
16461;BME280;8341;42.048;24.650;2023-02-05T10:52:26;97687.97;;;2.58;66.88
16461;BME280;8341;42.048;24.650;2023-02-05T10:54:53;97697.00;;;2.71;64.92
16461;BME280;8341;42.048;24.650;2023-02-05T10:57:21;97692.25;;;2.79;65.90
16461;BME280;8341;42.048;24.650;2023-02-05T10:59:53;97698.28;;;3.09;63.50
16461;BME280;8341;42.048;24.650;2023-02-05T11:02:21;97694.91;;;3.05;62.76
16461;BME280;8341;42.048;24.650;2023-02-05T11:04:54;97693.56;;;3.37;62.46
16461;BME280;8341;42.048;24.650;2023-02-05T11:07:25;97688.06;;;3.44;63.11
16461;BME280;8341;42.048;24.650;2023-02-05T11:09:53;97701.75;;;3.53;60.75
16461;BME280;8341;42.048;24.650;2023-02-05T11:12:26;97702.66;;;3.46;59.97
16461;BME280;8341;42.048;24.650;2023-02-05T11:14:57;97698.31;;;3.29;61.06
16461;BME280;8341;42.048;24.650;2023-02-05T11:17:30;97698.00;;;2.81;59.40
16461;BME280;8341;42.048;24.650;2023-02-05T11:20:00;97704.09;;;2.85;62.42
16461;BME280;8341;42.048;24.650;2023-02-05T11:22:30;97701.81;;;3.06;63.37
16461;BME280;8341;42.048;24.650;2023-02-05T11:25:14;97689.53;;;2.82;60.51
16461;BME280;8341;42.048;24.650;2023-02-05T11:27:49;97696.06;;;2.81;62.70
16461;BME280;8341;42.048;24.650;2023-02-05T11:30:23;97696.53;;;2.99;60.81
16461;BME280;8341;42.048;24.650;2023-02-05T11:32:51;97701.66;;;2.67;59.18
16461;BME280;8341;42.048;24.650;2023-02-05T11:35:22;97697.38;;;2.46;59.30
16461;BME280;8341;42.048;24.650;2023-02-05T11:37:59;97692.84;;;2.40;61.90
16461;BME280;8341;42.048;24.650;2023-02-05T11:40:31;97697.97;;;2.58;61.02
16461;BME280;8341;42.048;24.650;2023-02-05T11:43:04;97695.13;;;2.41;60.13
16461;BME280;8341;42.048;24.650;2023-02-05T11:45:36;97696.34;;;2.37;62.54
16461;BME280;8341;42.048;24.650;2023-02-05T11:48:06;97678.94;;;2.45;62.97
16461;BME280;8341;42.048;24.650;2023-02-05T11:50:46;97683.34;;;2.59;60.72
16461;BME280;8341;42.048;24.650;2023-02-05T11:53:15;97685.16;;;2.65;61.13
16461;BME280;8341;42.048;24.650;2023-02-05T11:55:44;97674.56;;;2.78;61.23
16461;BME280;8341;42.048;24.650;2023-02-05T11:58:24;97676.88;;;2.79;59.78
16461;BME280;8341;42.048;24.650;2023-02-05T12:00:54;97681.06;;;2.80;58.50
16461;BME280;8341;42.048;24.650;2023-02-05T12:03:24;97685.06;;;2.72;57.90
16461;BME280;8341;42.048;24.650;2023-02-05T12:06:01;97686.16;;;2.51;58.50
16461;BME280;8341;42.048;24.650;2023-02-05T12:08:38;97683.84;;;2.50;57.86
16461;BME280;8341;42.048;24.650;2023-02-05T12:11:20;97681.81;;;2.58;58.37
16461;BME280;8341;42.048;24.650;2023-02-05T12:14:00;97684.28;;;2.48;56.59
16461;BME280;8341;42.048;24.650;2023-02-05T12:16:45;97685.09;;;2.45;57.30
16461;BME280;8341;42.048;24.650;2023-02-05T12:19:16;97693.66;;;2.37;56.47
16461;BME280;8341;42.048;24.650;2023-02-05T12:21:50;97683.63;;;2.41;57.74
16461;BME280;8341;42.048;24.650;2023-02-05T12:24:37;97692.66;;;2.54;57.37
16461;BME280;8341;42.048;24.650;2023-02-05T12:27:17;97694.75;;;2.43;58.13
16461;BME280;8341;42.048;24.650;2023-02-05T12:29:57;97709.16;;;2.56;57.66
16461;BME280;8341;42.048;24.650;2023-02-05T12:32:34;97712.53;;;2.60;58.07
16461;BME280;8341;42.048;24.650;2023-02-05T12:35:17;97710.16;;;2.66;56.65
16461;BME280;8341;42.048;24.650;2023-02-05T12:37:51;97710.28;;;2.59;56.19
16461;BME280;8341;42.048;24.650;2023-02-05T12:40:38;97708.59;;;2.68;57.18
16461;BME280;8341;42.048;24.650;2023-02-05T12:43:20;97703.84;;;2.76;56.99
16461;BME280;8341;42.048;24.650;2023-02-05T12:45:55;97712.44;;;2.67;55.22
16461;BME280;8341;42.048;24.650;2023-02-05T12:48:40;97700.56;;;2.65;56.12
16461;BME280;8341;42.048;24.650;2023-02-05T12:51:27;97707.16;;;2.60;55.45
16461;BME280;8341;42.048;24.650;2023-02-05T12:54:28;97702.78;;;2.70;55.65
16461;BME280;8341;42.048;24.650;2023-02-05T12:57:01;97706.03;;;2.84;56.16
16461;BME280;8341;42.048;24.650;2023-02-05T12:59:35;97708.31;;;2.86;54.28
16461;BME280;8341;42.048;24.650;2023-02-05T13:02:11;97707.53;;;2.85;55.95
16461;BME280;8341;42.048;24.650;2023-02-05T13:04:46;97707.50;;;2.89;56.67
16461;BME280;8341;42.048;24.650;2023-02-05T13:07:24;97709.19;;;2.79;54.90
16461;BME280;8341;42.048;24.650;2023-02-05T13:09:56;97709.94;;;2.57;54.21
16461;BME280;8341;42.048;24.650;2023-02-05T13:12:27;97702.78;;;2.46;54.68
16461;BME280;8341;42.048;24.650;2023-02-05T13:15:01;97705.81;;;2.48;56.55
16461;BME280;8341;42.048;24.650;2023-02-05T13:17:34;97718.81;;;2.53;55.35
16461;BME280;8341;42.048;24.650;2023-02-05T13:20:09;97716.47;;;2.56;55.44
16461;BME280;8341;42.048;24.650;2023-02-05T13:22:50;97719.50;;;2.58;55.76
16461;BME280;8341;42.048;24.650;2023-02-05T13:25:39;97713.00;;;2.55;55.53